You are listening to:
RJTT Departure - Tokyo, Japan

RJTT 231000Z 08009KT 040V100 9999 FEW015 SCT030 BKN040 17/14 Q1017 NOSIG

If stream doesn't start automatically press the play button
If stream stops then reload player then press play